sensor_id;sensor_type;location;lat;lon;timestamp;pressure;altitude;pressure_sealevel;temperature;humidity
79703;BME280;69172;52.352;5.006;2023-12-28T00:01:37;100660.75;;;9.92;100.00
79703;BME280;69172;52.352;5.006;2023-12-28T00:04:02;100660.13;;;9.96;100.00
79703;BME280;69172;52.352;5.006;2023-12-28T00:06:31;100665.28;;;9.96;100.00
79703;BME280;69172;52.352;5.006;2023-12-28T00:09:00;100667.03;;;9.97;100.00
79703;BME280;69172;52.352;5.006;2023-12-28T00:11:30;100672.44;;;10.02;100.00
79703;BME280;69172;52.352;5.006;2023-12-28T00:13:57;100684.81;;;10.09;100.00
79703;BME280;69172;52.352;5.006;2023-12-28T00:16:23;100692.63;;;10.10;100.00
79703;BME280;69172;52.352;5.006;2023-12-28T00:18:49;100684.91;;;10.10;100.00
79703;BME280;69172;52.352;5.006;2023-12-28T00:21:14;100677.97;;;10.09;100.00
79703;BME280;69172;52.352;5.006;2023-12-28T00:23:41;100693.84;;;10.17;100.00
79703;BME280;69172;52.352;5.006;2023-12-28T00:26:06;100693.63;;;10.29;100.00
79703;BME280;69172;52.352;5.006;2023-12-28T00:28:31;100698.00;;;10.30;100.00
79703;BME280;69172;52.352;5.006;2023-12-28T00:30:57;100680.84;;;10.30;100.00
79703;BME280;69172;52.352;5.006;2023-12-28T00:33:22;100691.13;;;10.30;100.00
79703;BME280;69172;52.352;5.006;2023-12-28T00:35:48;100683.19;;;10.26;100.00
79703;BME280;69172;52.352;5.006;2023-12-28T00:38:16;100680.72;;;10.27;100.00
79703;BME280;69172;52.352;5.006;2023-12-28T00:40:46;100659.09;;;10.09;100.00
79703;BME280;69172;52.352;5.006;2023-12-28T00:43:12;100669.38;;;10.24;100.00
79703;BME280;69172;52.352;5.006;2023-12-28T00:45:38;100679.81;;;10.27;100.00
79703;BME280;69172;52.352;5.006;2023-12-28T00:48:06;100686.00;;;10.30;100.00
79703;BME280;69172;52.352;5.006;2023-12-28T00:50:32;100682.63;;;10.31;100.00
79703;BME280;69172;52.352;5.006;2023-12-28T00:52:57;100693.97;;;10.35;100.00
79703;BME280;69172;52.352;5.006;2023-12-28T00:55:23;100689.13;;;10.25;100.00
79703;BME280;69172;52.352;5.006;2023-12-28T00:57:49;100685.53;;;10.21;100.00
79703;BME280;69172;52.352;5.006;2023-12-28T01:02:50;100698.91;;;10.15;100.00
79703;BME280;69172;52.352;5.006;2023-12-28T01:05:20;100696.94;;;10.11;100.00
79703;BME280;69172;52.352;5.006;2023-12-28T03:42:35;100659.63;;;9.87;100.00
79703;BME280;69172;52.352;5.006;2023-12-28T04:27:20;100655.75;;;10.10;100.00
79703;BME280;69172;52.352;5.006;2023-12-28T04:29:46;100661.16;;;10.14;100.00
79703;BME280;69172;52.352;5.006;2023-12-28T06:27:13;100714.47;;;10.49;100.00
79703;BME280;69172;52.352;5.006;2023-12-28T06:29:38;100712.22;;;10.55;100.00
79703;BME280;69172;52.352;5.006;2023-12-28T06:32:05;100720.31;;;10.47;100.00
79703;BME280;69172;52.352;5.006;2023-12-28T06:34:31;100716.19;;;10.49;100.00
79703;BME280;69172;52.352;5.006;2023-12-28T06:36:56;100731.84;;;10.53;100.00
79703;BME280;69172;52.352;5.006;2023-12-28T06:39:22;100720.31;;;10.47;100.00
79703;BME280;69172;52.352;5.006;2023-12-28T06:41:48;100729.16;;;10.52;100.00
79703;BME280;69172;52.352;5.006;2023-12-28T06:44:20;100736.44;;;10.59;100.00
79703;BME280;69172;52.352;5.006;2023-12-28T06:46:53;100712.16;;;10.54;100.00
79703;BME280;69172;52.352;5.006;2023-12-28T07:07:48;100722.81;;;10.45;100.00
79703;BME280;69172;52.352;5.006;2023-12-28T07:59:15;100799.53;;;10.38;100.00
79703;BME280;69172;52.352;5.006;2023-12-28T08:02:02;100808.75;;;10.34;100.00
79703;BME280;69172;52.352;5.006;2023-12-28T08:04:55;100794.13;;;10.33;100.00
79703;BME280;69172;52.352;5.006;2023-12-28T08:10:54;100803.69;;;10.36;100.00
79703;BME280;69172;52.352;5.006;2023-12-28T08:13:21;100794.59;;;10.26;100.00
79703;BME280;69172;52.352;5.006;2023-12-28T08:15:52;100795.22;;;10.22;100.00
79703;BME280;69172;52.352;5.006;2023-12-28T08:18:19;100806.47;;;10.24;100.00
79703;BME280;69172;52.352;5.006;2023-12-28T08:20:46;100805.13;;;10.31;100.00
79703;BME280;69172;52.352;5.006;2023-12-28T08:23:25;100784.84;;;10.21;100.00
79703;BME280;69172;52.352;5.006;2023-12-28T08:25:51;100776.09;;;10.17;100.00
79703;BME280;69172;52.352;5.006;2023-12-28T08:31:20;100816.47;;;10.34;100.00
79703;BME280;69172;52.352;5.006;2023-12-28T08:33:58;100829.03;;;10.44;100.00
79703;BME280;69172;52.352;5.006;2023-12-28T08:36:25;100798.66;;;10.23;100.00
79703;BME280;69172;52.352;5.006;2023-12-28T08:38:59;100802.31;;;10.26;100.00
79703;BME280;69172;52.352;5.006;2023-12-28T08:41:31;100800.69;;;10.28;100.00
79703;BME280;69172;52.352;5.006;2023-12-28T08:43:58;100824.53;;;10.40;100.00
79703;BME280;69172;52.352;5.006;2023-12-28T08:46:24;100824.66;;;10.27;100.00
79703;BME280;69172;52.352;5.006;2023-12-28T08:48:55;100819.22;;;10.23;100.00
79703;BME280;69172;52.352;5.006;2023-12-28T08:51:28;100813.13;;;10.21;100.00
79703;BME280;69172;52.352;5.006;2023-12-28T08:53:56;100824.31;;;10.21;100.00
79703;BME280;69172;52.352;5.006;2023-12-28T08:56:22;100839.53;;;10.33;100.00
79703;BME280;69172;52.352;5.006;2023-12-28T08:58:48;100825.44;;;10.26;100.00
79703;BME280;69172;52.352;5.006;2023-12-28T09:01:21;100846.97;;;10.28;100.00
79703;BME280;69172;52.352;5.006;2023-12-28T09:03:56;100812.78;;;10.14;100.00
79703;BME280;69172;52.352;5.006;2023-12-28T09:06:25;100866.75;;;10.29;100.00
79703;BME280;69172;52.352;5.006;2023-12-28T09:08:53;100818.97;;;10.18;100.00
79703;BME280;69172;52.352;5.006;2023-12-28T09:11:21;100850.97;;;10.38;100.00
79703;BME280;69172;52.352;5.006;2023-12-28T09:13:47;100840.88;;;10.26;100.00
79703;BME280;69172;52.352;5.006;2023-12-28T09:16:13;100841.38;;;10.35;100.00
79703;BME280;69172;52.352;5.006;2023-12-28T09:18:40;100843.25;;;10.38;100.00
79703;BME280;69172;52.352;5.006;2023-12-28T09:21:07;100855.38;;;10.40;100.00
79703;BME280;69172;52.352;5.006;2023-12-28T09:23:33;100848.81;;;10.31;100.00
79703;BME280;69172;52.352;5.006;2023-12-28T09:26:03;100853.97;;;10.31;100.00
79703;BME280;69172;52.352;5.006;2023-12-28T09:28:29;100849.63;;;10.30;100.00
79703;BME280;69172;52.352;5.006;2023-12-28T09:30:55;100857.53;;;10.33;100.00
79703;BME280;69172;52.352;5.006;2023-12-28T09:33:20;100853.34;;;10.35;100.00
79703;BME280;69172;52.352;5.006;2023-12-28T09:35:47;100849.28;;;10.24;100.00
79703;BME280;69172;52.352;5.006;2023-12-28T09:38:13;100854.78;;;10.30;100.00
79703;BME280;69172;52.352;5.006;2023-12-28T09:40:41;100850.69;;;10.33;100.00
79703;BME280;69172;52.352;5.006;2023-12-28T09:45:39;100857.94;;;10.40;100.00
79703;BME280;69172;52.352;5.006;2023-12-28T09:51:08;100873.09;;;10.50;100.00
79703;BME280;69172;52.352;5.006;2023-12-28T09:53:55;100843.72;;;10.47;100.00
79703;BME280;69172;52.352;5.006;2023-12-28T09:56:23;100879.63;;;10.60;100.00
79703;BME280;69172;52.352;5.006;2023-12-28T10:02:12;100872.34;;;10.67;100.00
79703;BME280;69172;52.352;5.006;2023-12-28T10:04:40;100857.28;;;10.59;100.00
79703;BME280;69172;52.352;5.006;2023-12-28T10:10:34;100919.44;;;10.66;100.00
79703;BME280;69172;52.352;5.006;2023-12-28T11:07:50;100869.47;;;10.77;100.00
79703;BME280;69172;52.352;5.006;2023-12-28T11:10:23;100855.31;;;10.69;100.00
79703;BME280;69172;52.352;5.006;2023-12-28T11:12:53;100856.00;;;10.82;100.00
79703;BME280;69172;52.352;5.006;2023-12-28T11:15:20;100871.84;;;10.89;100.00
79703;BME280;69172;52.352;5.006;2023-12-28T11:17:52;100856.47;;;10.91;100.00
79703;BME280;69172;52.352;5.006;2023-12-28T11:20:20;100863.41;;;10.92;100.00
79703;BME280;69172;52.352;5.006;2023-12-28T11:23:03;100863.84;;;10.85;100.00
79703;BME280;69172;52.352;5.006;2023-12-28T11:25:38;100833.28;;;10.74;100.00
79703;BME280;69172;52.352;5.006;2023-12-28T11:28:26;100861.94;;;10.81;100.00
79703;BME280;69172;52.352;5.006;2023-12-28T11:30:53;100853.09;;;10.92;100.00
79703;BME280;69172;52.352;5.006;2023-12-28T11:43:21;100865.50;;;10.99;100.00
79703;BME280;69172;52.352;5.006;2023-12-28T11:46:07;100836.09;;;10.79;100.00
79703;BME280;69172;52.352;5.006;2023-12-28T11:48:33;100851.56;;;10.95;100.00
79703;BME280;69172;52.352;5.006;2023-12-28T11:51:17;100827.59;;;10.80;100.00
79703;BME280;69172;52.352;5.006;2023-12-28T11:53:43;100826.81;;;10.81;100.00
79703;BME280;69172;52.352;5.006;2023-12-28T11:56:15;100838.41;;;10.89;100.00
79703;BME280;69172;52.352;5.006;2023-12-28T11:58:53;100830.47;;;10.70;100.00
79703;BME280;69172;52.352;5.006;2023-12-28T12:01:19;100852.91;;;10.72;100.00
79703;BME280;69172;52.352;5.006;2023-12-28T12:03:44;100858.06;;;10.72;100.00
79703;BME280;69172;52.352;5.006;2023-12-28T12:06:10;100851.59;;;10.64;100.00
79703;BME280;69172;52.352;5.006;2023-12-28T12:08:45;100863.09;;;10.71;100.00
79703;BME280;69172;52.352;5.006;2023-12-28T12:11:18;100868.72;;;10.64;100.00
79703;BME280;69172;52.352;5.006;2023-12-28T12:13:54;100869.78;;;10.67;100.00
79703;BME280;69172;52.352;5.006;2023-12-28T12:16:20;100875.72;;;10.66;100.00
79703;BME280;69172;52.352;5.006;2023-12-28T12:18:51;100873.84;;;10.64;100.00
79703;BME280;69172;52.352;5.006;2023-12-28T12:21:17;100857.03;;;10.54;100.00
79703;BME280;69172;52.352;5.006;2023-12-28T12:23:43;100847.00;;;10.59;100.00
79703;BME280;69172;52.352;5.006;2023-12-28T12:26:40;100881.75;;;10.67;100.00
79703;BME280;69172;52.352;5.006;2023-12-28T12:31:52;100835.09;;;10.61;100.00
79703;BME280;69172;52.352;5.006;2023-12-28T12:34:49;100824.75;;;10.59;100.00
79703;BME280;69172;52.352;5.006;2023-12-28T12:37:17;100812.47;;;10.70;100.00
79703;BME280;69172;52.352;5.006;2023-12-28T13:02:47;100809.53;;;10.95;100.00
79703;BME280;69172;52.352;5.006;2023-12-28T13:15:17;100800.53;;;10.87;100.00
79703;BME280;69172;52.352;5.006;2023-12-28T13:23:23;100843.28;;;11.01;100.00
79703;BME280;69172;52.352;5.006;2023-12-28T13:29:14;100808.66;;;10.94;100.00
79703;BME280;69172;52.352;5.006;2023-12-28T13:32:02;100793.81;;;10.90;100.00
79703;BME280;69172;52.352;5.006;2023-12-28T13:34:35;100802.38;;;10.89;100.00
79703;BME280;69172;52.352;5.006;2023-12-28T13:40:59;100813.69;;;11.09;99.76
79703;BME280;69172;52.352;5.006;2023-12-28T13:43:26;100817.66;;;11.02;100.00
79703;BME280;69172;52.352;5.006;2023-12-28T13:45:52;100825.53;;;11.05;100.00
79703;BME280;69172;52.352;5.006;2023-12-28T13:48:20;100836.13;;;10.95;100.00
79703;BME280;69172;52.352;5.006;2023-12-28T13:50:46;100824.16;;;10.96;100.00
79703;BME280;69172;52.352;5.006;2023-12-28T13:53:11;100802.38;;;10.89;100.00
79703;BME280;69172;52.352;5.006;2023-12-28T13:55:37;100833.16;;;10.88;100.00
79703;BME280;69172;52.352;5.006;2023-12-28T13:58:02;100818.38;;;10.84;100.00
79703;BME280;69172;52.352;5.006;2023-12-28T14:00:31;100819.63;;;10.75;100.00
79703;BME280;69172;52.352;5.006;2023-12-28T14:02:57;100832.41;;;10.74;100.00
79703;BME280;69172;52.352;5.006;2023-12-28T14:05:26;100798.66;;;10.68;100.00
79703;BME280;69172;52.352;5.006;2023-12-28T14:07:51;100810.44;;;10.64;100.00
79703;BME280;69172;52.352;5.006;2023-12-28T14:10:17;100813.47;;;10.57;100.00
79703;BME280;69172;52.352;5.006;2023-12-28T14:12:43;100820.28;;;10.41;100.00
79703;BME280;69172;52.352;5.006;2023-12-28T14:15:10;100807.50;;;10.42;100.00
79703;BME280;69172;52.352;5.006;2023-12-28T14:17:35;100834.75;;;10.24;100.00
79703;BME280;69172;52.352;5.006;2023-12-28T14:20:01;100841.31;;;10.19;100.00
79703;BME280;69172;52.352;5.006;2023-12-28T14:22:28;100823.94;;;10.15;100.00
79703;BME280;69172;52.352;5.006;2023-12-28T14:25:01;100818.03;;;10.16;100.00
79703;BME280;69172;52.352;5.006;2023-12-28T14:27:29;100810.72;;;10.09;100.00
79703;BME280;69172;52.352;5.006;2023-12-28T14:30:02;100819.16;;;10.21;100.00
79703;BME280;69172;52.352;5.006;2023-12-28T14:35:32;100838.91;;;10.22;100.00
79703;BME280;69172;52.352;5.006;2023-12-28T14:38:06;100810.13;;;10.13;100.00
79703;BME280;69172;52.352;5.006;2023-12-28T14:40:45;100812.56;;;10.11;100.00
79703;BME280;69172;52.352;5.006;2023-12-28T15:15:05;100762.38;;;9.87;100.00
79703;BME280;69172;52.352;5.006;2023-12-28T15:50:59;100758.47;;;10.39;100.00
79703;BME280;69172;52.352;5.006;2023-12-28T15:53:43;100758.13;;;10.33;100.00
79703;BME280;69172;52.352;5.006;2023-12-28T15:56:35;100745.94;;;10.29;100.00
79703;BME280;69172;52.352;5.006;2023-12-28T15:59:28;100737.75;;;10.36;100.00
79703;BME280;69172;52.352;5.006;2023-12-28T16:01:54;100746.22;;;10.50;100.00
79703;BME280;69172;52.352;5.006;2023-12-28T16:04:20;100737.53;;;10.48;100.00
79703;BME280;69172;52.352;5.006;2023-12-28T16:06:53;100723.53;;;10.43;100.00
79703;BME280;69172;52.352;5.006;2023-12-28T16:09:23;100727.59;;;10.54;100.00
79703;BME280;69172;52.352;5.006;2023-12-28T16:12:08;100731.66;;;10.50;100.00
79703;BME280;69172;52.352;5.006;2023-12-28T16:14:37;100749.28;;;10.59;100.00
79703;BME280;69172;52.352;5.006;2023-12-28T16:17:03;100727.19;;;10.62;100.00
79703;BME280;69172;52.352;5.006;2023-12-28T17:43:56;100676.38;;;10.42;100.00
79703;BME280;69172;52.352;5.006;2023-12-28T18:44:13;100692.41;;;10.22;100.00
79703;BME280;69172;52.352;5.006;2023-12-28T18:46:40;100687.28;;;10.22;100.00
79703;BME280;69172;52.352;5.006;2023-12-28T18:49:10;100685.94;;;10.29;100.00
79703;BME280;69172;52.352;5.006;2023-12-28T18:51:37;100682.75;;;10.33;100.00
79703;BME280;69172;52.352;5.006;2023-12-28T18:54:05;100676.44;;;10.28;100.00
79703;BME280;69172;52.352;5.006;2023-12-28T18:56:34;100667.63;;;10.39;100.00
79703;BME280;69172;52.352;5.006;2023-12-28T18:59:31;100676.56;;;10.45;100.00
79703;BME280;69172;52.352;5.006;2023-12-28T19:02:45;100654.31;;;10.46;100.00
79703;BME280;69172;52.352;5.006;2023-12-28T19:05:43;100654.31;;;10.46;100.00
79703;BME280;69172;52.352;5.006;2023-12-28T19:18:37;100630.84;;;10.40;100.00
79703;BME280;69172;52.352;5.006;2023-12-28T19:28:06;100661.34;;;10.50;100.00
79703;BME280;69172;52.352;5.006;2023-12-28T19:31:06;100628.81;;;10.50;100.00
79703;BME280;69172;52.352;5.006;2023-12-28T19:33:40;100635.97;;;10.40;100.00
79703;BME280;69172;52.352;5.006;2023-12-28T19:36:57;100648.91;;;10.57;100.00
79703;BME280;69172;52.352;5.006;2023-12-28T19:39:43;100636.69;;;10.53;100.00
79703;BME280;69172;52.352;5.006;2023-12-28T19:42:19;100617.31;;;10.44;100.00
79703;BME280;69172;52.352;5.006;2023-12-28T19:45:13;100608.75;;;10.43;100.00
79703;BME280;69172;52.352;5.006;2023-12-28T19:57:29;100615.47;;;10.57;100.00
79703;BME280;69172;52.352;5.006;2023-12-28T20:07:20;100630.44;;;10.64;100.00
79703;BME280;69172;52.352;5.006;2023-12-28T20:10:09;100611.88;;;10.54;100.00
79703;BME280;69172;52.352;5.006;2023-12-28T20:12:40;100608.09;;;10.47;100.00
79703;BME280;69172;52.352;5.006;2023-12-28T20:15:15;100589.47;;;10.51;100.00
79703;BME280;69172;52.352;5.006;2023-12-28T20:17:46;100601.97;;;10.61;100.00
79703;BME280;69172;52.352;5.006;2023-12-28T20:20:12;100575.34;;;10.43;100.00
79703;BME280;69172;52.352;5.006;2023-12-28T20:22:38;100596.34;;;10.52;100.00
79703;BME280;69172;52.352;5.006;2023-12-28T20:25:04;100584.34;;;10.35;100.00
79703;BME280;69172;52.352;5.006;2023-12-28T20:27:31;100586.97;;;10.37;100.00
79703;BME280;69172;52.352;5.006;2023-12-28T20:29:57;100578.88;;;10.29;100.00
79703;BME280;69172;52.352;5.006;2023-12-28T20:32:23;100595.06;;;10.28;100.00
79703;BME280;69172;52.352;5.006;2023-12-28T20:34:49;100603.13;;;10.34;100.00
79703;BME280;69172;52.352;5.006;2023-12-28T20:37:19;100581.25;;;10.10;100.00
79703;BME280;69172;52.352;5.006;2023-12-28T20:42:48;100587.25;;;9.94;100.00
79703;BME280;69172;52.352;5.006;2023-12-28T20:45:14;100595.38;;;10.02;100.00
79703;BME280;69172;52.352;5.006;2023-12-28T20:47:40;100590.84;;;9.98;100.00
79703;BME280;69172;52.352;5.006;2023-12-28T20:50:07;100601.28;;;10.01;100.00
79703;BME280;69172;52.352;5.006;2023-12-28T20:52:36;100595.06;;;9.81;100.00
79703;BME280;69172;52.352;5.006;2023-12-28T20:55:12;100583.19;;;9.67;100.00
79703;BME280;69172;52.352;5.006;2023-12-28T20:57:39;100596.81;;;9.66;100.00
79703;BME280;69172;52.352;5.006;2023-12-28T21:00:26;100592.63;;;9.68;100.00
79703;BME280;69172;52.352;5.006;2023-12-28T21:02:57;100614.84;;;9.68;100.00
79703;BME280;69172;52.352;5.006;2023-12-28T21:05:28;100566.50;;;9.44;100.00
79703;BME280;69172;52.352;5.006;2023-12-28T21:07:54;100585.09;;;9.40;100.00
79703;BME280;69172;52.352;5.006;2023-12-28T21:10:49;100577.66;;;9.45;100.00
79703;BME280;69172;52.352;5.006;2023-12-28T21:20:26;100570.84;;;9.45;100.00
79703;BME280;69172;52.352;5.006;2023-12-28T21:22:58;100578.69;;;9.48;100.00
79703;BME280;69172;52.352;5.006;2023-12-28T21:25:30;100563.28;;;9.48;100.00
79703;BME280;69172;52.352;5.006;2023-12-28T21:28:02;100556.41;;;9.47;100.00
79703;BME280;69172;52.352;5.006;2023-12-28T21:30:36;100563.75;;;9.56;100.00
79703;BME280;69172;52.352;5.006;2023-12-28T21:33:09;100572.88;;;9.51;100.00
79703;BME280;69172;52.352;5.006;2023-12-28T21:48:51;100587.59;;;9.39;100.00
79703;BME280;69172;52.352;5.006;2023-12-28T21:51:35;100587.50;;;9.37;100.00
79703;BME280;69172;52.352;5.006;2023-12-28T22:07:59;100563.78;;;9.88;100.00
79703;BME280;69172;52.352;5.006;2023-12-28T22:10:28;100540.00;;;9.76;100.00
79703;BME280;69172;52.352;5.006;2023-12-28T22:13:13;100564.03;;;9.93;100.00
79703;BME280;69172;52.352;5.006;2023-12-28T22:15:54;100535.16;;;9.81;100.00
79703;BME280;69172;52.352;5.006;2023-12-28T22:18:40;100567.16;;;10.03;100.00
79703;BME280;69172;52.352;5.006;2023-12-28T22:21:13;100571.66;;;9.91;100.00
79703;BME280;69172;52.352;5.006;2023-12-28T22:23:40;100580.09;;;9.89;100.00
79703;BME280;69172;52.352;5.006;2023-12-28T22:26:07;100592.22;;;9.91;100.00
79703;BME280;69172;52.352;5.006;2023-12-28T22:28:34;100581.59;;;9.85;100.00
79703;BME280;69172;52.352;5.006;2023-12-28T22:30:59;100602.03;;;9.68;100.00
79703;BME280;69172;52.352;5.006;2023-12-28T22:33:24;100591.75;;;9.68;100.00
79703;BME280;69172;52.352;5.006;2023-12-28T22:35:50;100584.53;;;9.61;100.00
79703;BME280;69172;52.352;5.006;2023-12-28T22:38:15;100575.94;;;9.60;100.00
79703;BME280;69172;52.352;5.006;2023-12-28T22:40:41;100592.22;;;9.61;100.00
79703;BME280;69172;52.352;5.006;2023-12-28T22:43:07;100593.81;;;9.58;100.00
79703;BME280;69172;52.352;5.006;2023-12-28T22:45:35;100572.34;;;9.56;100.00
79703;BME280;69172;52.352;5.006;2023-12-28T22:48:07;100568.00;;;9.55;100.00
79703;BME280;69172;52.352;5.006;2023-12-28T22:50:40;100579.16;;;9.56;100.00
79703;BME280;69172;52.352;5.006;2023-12-28T22:53:05;100563.81;;;9.57;100.00
79703;BME280;69172;52.352;5.006;2023-12-28T22:55:32;100580.81;;;9.55;100.00
79703;BME280;69172;52.352;5.006;2023-12-28T22:57:57;100589.06;;;9.50;100.00
79703;BME280;69172;52.352;5.006;2023-12-28T23:00:24;100594.75;;;9.44;100.00
79703;BME280;69172;52.352;5.006;2023-12-28T23:03:03;100582.44;;;9.39;100.00
79703;BME280;69172;52.352;5.006;2023-12-28T23:05:31;100577.31;;;9.24;100.00
79703;BME280;69172;52.352;5.006;2023-12-28T23:07:59;100578.22;;;9.25;100.00
79703;BME280;69172;52.352;5.006;2023-12-28T23:10:26;100588.31;;;9.22;100.00
79703;BME280;69172;52.352;5.006;2023-12-28T23:12:52;100563.19;;;9.16;100.00
79703;BME280;69172;52.352;5.006;2023-12-28T23:15:18;100563.47;;;9.21;100.00
79703;BME280;69172;52.352;5.006;2023-12-28T23:17:44;100544.25;;;9.14;100.00
79703;BME280;69172;52.352;5.006;2023-12-28T23:20:15;100575.06;;;9.14;100.00
79703;BME280;69172;52.352;5.006;2023-12-28T23:22:42;100561.81;;;9.07;100.00
79703;BME280;69172;52.352;5.006;2023-12-28T23:25:12;100561.16;;;9.11;100.00
79703;BME280;69172;52.352;5.006;2023-12-28T23:27:39;100561.88;;;9.08;100.00
79703;BME280;69172;52.352;5.006;2023-12-28T23:30:09;100568.25;;;9.15;100.00
79703;BME280;69172;52.352;5.006;2023-12-28T23:32:35;100565.31;;;9.09;100.00
79703;BME280;69172;52.352;5.006;2023-12-28T23:35:00;100564.78;;;9.14;100.00
79703;BME280;69172;52.352;5.006;2023-12-28T23:37:27;100542.66;;;9.16;100.00
79703;BME280;69172;52.352;5.006;2023-12-28T23:40:00;100575.59;;;9.23;100.00
79703;BME280;69172;52.352;5.006;2023-12-28T23:42:26;100566.47;;;9.28;100.00
79703;BME280;69172;52.352;5.006;2023-12-28T23:44:54;100567.59;;;9.33;100.00
79703;BME280;69172;52.352;5.006;2023-12-28T23:47:22;100565.81;;;9.32;100.00
79703;BME280;69172;52.352;5.006;2023-12-28T23:49:48;100556.25;;;9.30;100.00
79703;BME280;69172;52.352;5.006;2023-12-28T23:52:14;100566.34;;;9.27;100.00
79703;BME280;69172;52.352;5.006;2023-12-28T23:54:42;100574.31;;;9.31;100.00
79703;BME280;69172;52.352;5.006;2023-12-28T23:57:08;100547.78;;;9.31;100.00
79703;BME280;69172;52.352;5.006;2023-12-28T23:59:34;100566.09;;;9.37;100.00
